Time;durP1;ratioP1;P1;durP2;ratioP2;P2;SDS_P1;SDS_P2;PMS_P1;PMS_P2;Temp;Humidity;BMP_temperature;BMP_pressure;BME280_temperature;BME280_humidity;BME280_pressure;Samples;Min_cycle;Max_cycle;Signal;HPM_P1;HPM_P2
2022/01/22 00:00:13;;;;;;;3.37;2.00;;;4.10;99.90;;;;;;5072137;28;20251;-74
2022/01/22 00:02:39;;;;;;;2.33;2.13;;;4.10;99.90;;;;;;5072040;28;20200;-75
2022/01/22 00:05:07;;;;;;;0.33;0.33;;;4.10;99.90;;;;;;5071959;28;20218;-74
2022/01/22 00:07:33;;;;;;;1.93;1.83;;;4.10;99.90;;;;;;5072080;28;20191;-74
2022/01/22 00:10:03;;;;;;;0.40;0.40;;;4.10;99.90;;;;;;5071975;28;20322;-74
2022/01/22 00:15:06;;;;;;;0.20;0.20;;;4.10;99.90;;;;;;5072194;28;20186;-75
2022/01/22 00:17:32;;;;;;;0.73;0.73;;;4.10;99.90;;;;;;5071175;28;20203;-75
2022/01/22 00:19:58;;;;;;;1.30;1.07;;;4.00;99.90;;;;;;5072414;28;20243;-74
2022/01/22 00:22:27;;;;;;;2.57;1.27;;;4.00;99.90;;;;;;5071464;28;20679;-75
2022/01/22 00:24:57;;;;;;;1.63;1.57;;;4.00;99.90;;;;;;5071876;28;20195;-75
2022/01/22 00:27:23;;;;;;;0.93;0.93;;;4.00;99.90;;;;;;5072110;28;20173;-75
2022/01/22 00:29:48;;;;;;;0.23;0.23;;;4.00;99.90;;;;;;5071912;28;20685;-75
2022/01/22 00:32:14;;;;;;;6.57;4.50;;;4.00;99.90;;;;;;5071290;28;20207;-73
2022/01/22 00:34:40;;;;;;;1.33;1.23;;;4.00;99.90;;;;;;5071310;28;20194;-74
2022/01/22 00:37:05;;;;;;;6.70;2.47;;;4.00;99.90;;;;;;5071246;28;20187;-75
2022/01/22 00:39:31;;;;;;;19.17;3.40;;;4.00;99.90;;;;;;5053287;28;20180;-74
2022/01/22 00:41:57;;;;;;;0.73;0.73;;;4.00;99.90;;;;;;5071046;28;20650;-74
2022/01/22 00:44:22;;;;;;;0.43;0.43;;;4.00;99.90;;;;;;5071394;28;20674;-75
2022/01/22 00:46:48;;;;;;;1.63;1.53;;;4.00;99.90;;;;;;5053561;28;20218;-75
2022/01/22 00:49:14;;;;;;;2.53;1.83;;;4.00;99.90;;;;;;5071500;28;20199;-74
2022/01/22 00:51:39;;;;;;;4.33;1.37;;;4.00;99.90;;;;;;5053302;28;20219;-73
2022/01/22 00:54:05;;;;;;;2.13;1.93;;;4.00;99.90;;;;;;5071236;28;20172;-73
2022/01/22 00:56:30;;;;;;;1.27;1.27;;;4.00;99.90;;;;;;5071211;28;20181;-73
2022/01/22 00:58:56;;;;;;;3.07;2.77;;;4.00;99.90;;;;;;5071393;28;20647;-73
2022/01/22 01:01:22;;;;;;;3.17;2.97;;;4.00;99.90;;;;;;5053107;28;20189;-73
2022/01/22 01:03:48;;;;;;;4.33;3.90;;;4.00;99.90;;;;;;5071130;28;20196;-74
2022/01/22 01:06:14;;;;;;;1.43;1.33;;;4.00;99.90;;;;;;5071171;28;20273;-73
2022/01/22 01:08:40;;;;;;;1.43;1.33;;;4.00;99.90;;;;;;5071089;28;20172;-74
2022/01/22 01:11:07;;;;;;;1.37;0.67;;;4.00;99.90;;;;;;5071095;28;20186;-74
2022/01/22 01:13:39;;;;;;;3.83;1.47;;;4.00;99.90;;;;;;5070904;28;20195;-74
2022/01/22 01:16:18;;;;;;;2.23;1.63;;;4.00;99.90;;;;;;5071110;28;20176;-74
2022/01/22 01:32:34;;;;;;;3.77;2.17;;;3.80;99.90;;;;;;5084556;22;20217;-74
2022/01/22 01:35:04;;;;;;;7.57;4.17;;;3.80;99.90;;;;;;5037071;28;20204;-75
2022/01/22 01:37:30;;;;;;;4.47;3.47;;;3.80;99.90;;;;;;5031619;28;20177;-74
2022/01/22 01:40:00;;;;;;;2.37;2.27;;;3.70;99.90;;;;;;5031928;28;20686;-75
2022/01/22 01:42:36;;;;;;;7.73;2.70;;;3.70;99.90;;;;;;5014013;28;20192;-75
2022/01/22 01:45:05;;;;;;;1.97;1.83;;;3.70;99.90;;;;;;5034672;28;20261;-75
2022/01/22 01:47:31;;;;;;;1.30;1.30;;;3.70;99.90;;;;;;5033062;28;20555;-75
2022/01/22 01:49:57;;;;;;;3.07;2.23;;;3.70;99.90;;;;;;5052531;28;20261;-75
2022/01/22 01:52:37;;;;;;;2.00;1.90;;;3.70;99.90;;;;;;5054761;28;20208;-75
2022/01/22 01:55:18;;;;;;;2.33;1.70;;;3.70;99.90;;;;;;5037111;28;20618;-75
2022/01/22 01:57:43;;;;;;;6.00;3.27;;;3.70;99.90;;;;;;5054608;28;20170;-75
2022/01/22 02:00:21;;;;;;;2.40;2.30;;;3.70;99.90;;;;;;5054750;28;20719;-75
2022/01/22 02:02:48;;;;;;;1.77;1.67;;;3.70;99.90;;;;;;5054473;28;20265;-75
2022/01/22 02:05:15;;;;;;;2.80;2.70;;;3.70;99.90;;;;;;5054506;28;20680;-76
2022/01/22 02:07:43;;;;;;;5.17;3.43;;;3.70;99.90;;;;;;5021157;28;20215;-76
2022/01/22 02:10:13;;;;;;;3.97;2.27;;;3.80;99.90;;;;;;5034668;28;20268;-74
2022/01/22 02:13:26;;;;;;;2.73;2.63;;;3.80;99.90;;;;;;5047611;28;20220;-75
2022/01/22 02:23:46;;;;;;;4.20;3.83;;;3.70;99.90;;;;;;5034639;28;20208;-75
2022/01/22 02:26:14;;;;;;;4.10;3.73;;;3.70;99.90;;;;;;5034662;28;20209;-75
2022/01/22 02:28:41;;;;;;;9.03;1.83;;;3.70;99.90;;;;;;5035093;28;20615;-74
2022/01/22 02:34:09;;;;;;;2.97;2.77;;;3.70;99.90;;;;;;5034769;28;20298;-73
2022/01/22 02:39:24;;;;;;;2.57;2.37;;;3.70;99.90;;;;;;5034845;28;20184;-73
2022/01/22 02:41:51;;;;;;;5.50;4.37;;;3.70;99.90;;;;;;5019901;28;20184;-74
2022/01/22 02:44:51;;;;;;;3.53;3.33;;;3.70;99.90;;;;;;5054694;28;20699;-77
2022/01/22 02:47:09;;;;;;;7.77;3.10;;;3.70;99.90;;;;;;5057802;28;20188;-73
2022/01/22 02:49:35;;;;;;;2.37;2.17;;;3.70;99.90;;;;;;5055122;28;20185;-73
2022/01/22 02:52:07;;;;;;;2.60;2.43;;;3.70;99.90;;;;;;5055805;28;20180;-72
2022/01/22 02:54:33;;;;;;;2.77;2.20;;;3.70;99.90;;;;;;5054837;28;20196;-72
2022/01/22 02:56:59;;;;;;;4.57;4.03;;;3.70;99.90;;;;;;5036361;28;20191;-74
2022/01/22 02:59:25;;;;;;;4.43;2.90;;;3.70;99.90;;;;;;5054774;28;20181;-73
2022/01/22 03:01:52;;;;;;;4.70;3.37;;;3.80;99.90;;;;;;5036281;28;20204;-74
2022/01/22 03:04:17;;;;;;;2.90;2.80;;;3.80;99.90;;;;;;5054608;28;20206;-74
2022/01/22 03:06:44;;;;;;;6.87;3.27;;;3.80;99.90;;;;;;5046375;28;20177;-74
2022/01/22 03:09:12;;;;;;;1.30;1.30;;;3.80;99.90;;;;;;5049250;28;20187;-74
2022/01/22 03:11:47;;;;;;;2.17;2.07;;;3.80;99.90;;;;;;5036233;28;20189;-74
2022/01/22 03:19:17;;;;;;;3.40;2.73;;;3.80;99.90;;;;;;5053212;28;20192;-74
2022/01/22 03:21:57;;;;;;;2.53;1.70;;;3.90;99.90;;;;;;5035685;28;20192;-75
2022/01/22 03:27:24;;;;;;;9.37;8.60;;;3.90;99.90;;;;;;5051161;28;20184;-74
2022/01/22 03:29:51;;;;;;;1.50;1.40;;;3.90;99.90;;;;;;5053518;28;20197;-74
2022/01/22 03:32:17;;;;;;;1.50;1.50;;;3.90;99.90;;;;;;5035815;28;20545;-78
2022/01/22 03:34:55;;;;;;;2.30;2.20;;;3.90;99.90;;;;;;5032476;28;20259;-74
2022/01/22 03:37:21;;;;;;;7.13;6.37;;;3.90;99.90;;;;;;5033887;28;20753;-74
2022/01/22 03:39:47;;;;;;;3.10;2.03;;;3.90;99.90;;;;;;5033506;28;20184;-76
2022/01/22 03:42:12;;;;;;;2.17;1.77;;;3.90;99.90;;;;;;5032864;28;20178;-75
2022/01/22 03:44:38;;;;;;;2.40;1.63;;;3.90;99.90;;;;;;5032878;28;20209;-73
2022/01/22 03:47:04;;;;;;;5.77;4.13;;;3.90;99.90;;;;;;5033051;28;20180;-75
2022/01/22 03:49:31;;;;;;;5.00;4.47;;;3.90;99.90;;;;;;5032649;28;20178;-73
2022/01/22 03:51:56;;;;;;;2.77;2.57;;;3.90;99.90;;;;;;5032754;28;20725;-74
2022/01/22 03:54:22;;;;;;;9.17;4.40;;;3.90;99.90;;;;;;5033114;28;20233;-75
2022/01/22 03:56:48;;;;;;;4.10;3.17;;;3.90;99.90;;;;;;5032506;28;20193;-74
2022/01/22 03:59:15;;;;;;;3.67;3.33;;;3.90;99.90;;;;;;5032712;28;20243;-74
2022/01/22 04:04:17;;;;;;;6.90;5.83;;;3.90;99.90;;;;;;5032668;28;20197;-73
2022/01/22 04:09:14;;;;;;;2.67;2.57;;;4.00;99.90;;;;;;5032884;28;20674;-74
2022/01/22 04:11:43;;;;;;;1.97;1.87;;;4.00;99.90;;;;;;5031029;28;20219;-74
2022/01/22 04:14:20;;;;;;;3.07;1.37;;;4.00;99.90;;;;;;5032296;28;20197;-74
2022/01/22 04:25:01;;;;;;;2.00;1.93;;;4.00;99.90;;;;;;5032737;28;20667;-74
2022/01/22 04:27:27;;;;;;;6.57;3.83;;;4.00;99.90;;;;;;5032715;28;20180;-74
2022/01/22 04:29:58;;;;;;;2.97;2.77;;;4.00;99.90;;;;;;5014952;28;20181;-74
2022/01/22 04:32:27;;;;;;;4.17;3.87;;;4.00;99.90;;;;;;5032154;28;20181;-73
2022/01/22 04:34:54;;;;;;;6.80;5.17;;;4.00;99.90;;;;;;5031926;28;20216;-73
2022/01/22 04:37:20;;;;;;;14.63;4.90;;;4.10;99.90;;;;;;5032507;28;20205;-74
2022/01/22 04:39:47;;;;;;;3.23;3.03;;;4.00;99.90;;;;;;5032457;28;20184;-73
2022/01/22 04:42:14;;;;;;;6.00;5.40;;;4.10;99.90;;;;;;5031784;28;20188;-74
2022/01/22 04:44:51;;;;;;;3.93;3.37;;;4.10;99.90;;;;;;5032371;28;20197;-73
2022/01/22 04:47:44;;;;;;;3.63;3.30;;;4.10;99.90;;;;;;5014817;28;20238;-74
2022/01/22 04:55:39;;;;;;;6.43;4.73;;;4.20;99.90;;;;;;5032007;28;20189;-73
2022/01/22 04:58:06;;;;;;;15.90;4.67;;;4.20;99.90;;;;;;5014155;28;20236;-73
2022/01/22 05:00:35;;;;;;;5.57;5.17;;;4.20;99.90;;;;;;5012962;28;20190;-74
2022/01/22 05:03:02;;;;;;;15.03;3.27;;;4.20;99.90;;;;;;5031976;28;20228;-74
2022/01/22 05:05:28;;;;;;;5.60;5.10;;;4.20;99.90;;;;;;5043262;28;20203;-74
2022/01/22 05:07:54;;;;;;;2.83;2.63;;;4.10;99.90;;;;;;5034743;28;20185;-74
2022/01/22 05:10:20;;;;;;;2.50;2.33;;;4.20;99.90;;;;;;5033272;28;20180;-73
2022/01/22 05:12:46;;;;;;;7.57;2.67;;;4.10;99.90;;;;;;5046029;28;20266;-74
2022/01/22 05:15:13;;;;;;;3.80;3.57;;;4.20;99.90;;;;;;5032013;28;20694;-74
2022/01/22 05:17:41;;;;;;;5.57;4.13;;;4.20;99.90;;;;;;5032171;28;20197;-73
2022/01/22 05:20:38;;;;;;;2.80;2.60;;;4.20;99.90;;;;;;5015662;28;20184;-72
2022/01/22 05:25:34;;;;;;;6.13;4.37;;;4.20;99.90;;;;;;5037137;28;20229;-74
2022/01/22 05:33:28;;;;;;;4.93;4.63;;;4.20;99.90;;;;;;5035847;28;20205;-74
2022/01/22 05:38:35;;;;;;;3.43;3.23;;;4.20;99.90;;;;;;5053311;28;20180;-73
2022/01/22 05:41:01;;;;;;;3.93;3.67;;;4.20;99.90;;;;;;5038024;28;20551;-73
2022/01/22 05:43:26;;;;;;;5.47;3.13;;;4.20;99.90;;;;;;5054818;28;20297;-74
2022/01/22 05:45:53;;;;;;;3.13;2.83;;;4.20;99.90;;;;;;5054756;28;20275;-73
2022/01/22 05:48:19;;;;;;;5.80;5.10;;;4.20;99.90;;;;;;5055532;28;20251;-73
2022/01/22 05:50:52;;;;;;;7.57;3.93;;;4.20;99.90;;;;;;5055759;28;20177;-73
2022/01/22 05:53:45;;;;;;;16.93;4.13;;;4.20;99.90;;;;;;5038051;28;20193;-74
2022/01/22 06:01:38;;;;;;;3.63;2.87;;;4.20;99.90;;;;;;5035464;28;20201;-73
2022/01/22 06:04:04;;;;;;;3.77;3.40;;;4.20;99.90;;;;;;5035186;28;20201;-74
2022/01/22 06:06:29;;;;;;;3.90;3.60;;;4.20;99.90;;;;;;5048611;28;20223;-72
2022/01/22 06:08:57;;;;;;;19.23;7.10;;;4.20;99.90;;;;;;5017537;28;20202;-73
2022/01/22 06:11:25;;;;;;;9.83;6.20;;;4.20;99.90;;;;;;5035012;28;20253;-73
2022/01/22 06:13:51;;;;;;;3.03;2.83;;;4.20;99.90;;;;;;5015982;28;20251;-73
2022/01/22 06:16:22;;;;;;;4.67;4.37;;;4.20;99.90;;;;;;5036265;28;20185;-73
2022/01/22 06:18:48;;;;;;;5.83;5.13;;;4.20;99.90;;;;;;5037050;28;20189;-75
2022/01/22 06:21:15;;;;;;;4.43;2.17;;;4.20;99.90;;;;;;5055195;28;20264;-73
2022/01/22 06:23:45;;;;;;;4.37;3.43;;;4.20;99.90;;;;;;5053998;28;20703;-74
2022/01/22 06:26:12;;;;;;;7.13;6.47;;;4.20;99.90;;;;;;5036681;28;20201;-73
2022/01/22 06:28:37;;;;;;;2.43;2.33;;;4.20;99.90;;;;;;5039181;28;20781;-73
2022/01/22 06:31:04;;;;;;;7.50;5.47;;;4.20;99.90;;;;;;5038047;28;20177;-72
2022/01/22 06:33:30;;;;;;;4.23;3.83;;;4.30;99.90;;;;;;5055644;28;20793;-72
2022/01/22 06:35:55;;;;;;;5.33;4.83;;;4.30;99.90;;;;;;5055421;28;20208;-74
2022/01/22 06:38:21;;;;;;;6.07;4.00;;;4.30;99.90;;;;;;5054116;28;20192;-73
2022/01/22 06:43:31;;;;;;;4.00;3.60;;;4.20;99.90;;;;;;5054608;28;20200;-73
2022/01/22 06:45:57;;;;;;;2.63;2.53;;;4.30;99.90;;;;;;5053728;28;20212;-73
2022/01/22 06:48:23;;;;;;;14.27;8.63;;;4.30;99.90;;;;;;5053912;28;20185;-73
2022/01/22 06:50:48;;;;;;;3.03;2.73;;;4.30;99.90;;;;;;5055612;28;20181;-73
2022/01/22 06:53:14;;;;;;;3.27;3.03;;;4.30;99.90;;;;;;5052107;28;20680;-73
2022/01/22 06:55:59;;;;;;;5.57;4.73;;;4.30;99.90;;;;;;5034642;28;20182;-72
2022/01/22 06:58:25;;;;;;;1.10;1.00;;;4.30;99.90;;;;;;5034884;28;20667;-73
2022/01/22 07:00:51;;;;;;;8.10;6.30;;;4.30;99.90;;;;;;5034620;28;20255;-73
2022/01/22 07:03:16;;;;;;;7.83;7.00;;;4.30;99.90;;;;;;5016849;28;20206;-74
2022/01/22 07:05:42;;;;;;;1.47;1.47;;;4.30;99.90;;;;;;5047214;28;20207;-74
2022/01/22 07:08:07;;;;;;;7.37;5.37;;;4.30;99.90;;;;;;5034807;28;20880;-74
2022/01/22 07:10:33;;;;;;;8.40;6.83;;;4.40;99.90;;;;;;5034110;28;20657;-75
2022/01/22 07:12:59;;;;;;;4.13;3.77;;;4.40;99.90;;;;;;5027915;28;20248;-77
2022/01/22 07:15:25;;;;;;;5.07;4.37;;;4.40;99.90;;;;;;5032762;28;20181;-75
2022/01/22 07:17:50;;;;;;;7.27;4.70;;;4.30;99.90;;;;;;5033502;28;20193;-76
2022/01/22 07:20:24;;;;;;;8.90;6.60;;;4.40;99.90;;;;;;5015484;28;20182;-76
2022/01/22 07:23:00;;;;;;;4.47;3.73;;;4.40;99.90;;;;;;5034124;28;20204;-76
2022/01/22 07:25:27;;;;;;;4.53;4.23;;;4.40;99.90;;;;;;5033896;28;20215;-75
2022/01/22 07:27:52;;;;;;;3.87;3.40;;;4.30;99.90;;;;;;5033213;28;20177;-75
2022/01/22 07:30:18;;;;;;;4.67;4.40;;;4.40;99.90;;;;;;5033984;28;20182;-78
2022/01/22 07:32:44;;;;;;;6.63;5.90;;;4.40;99.90;;;;;;5033457;28;20206;-77
2022/01/22 07:35:17;;;;;;;5.30;4.90;;;4.40;99.90;;;;;;5091151;22;20594;-73
2022/01/22 07:37:42;;;;;;;5.90;5.40;;;4.40;99.90;;;;;;5074770;28;20229;-74
2022/01/22 07:40:11;;;;;;;7.77;6.33;;;4.40;99.90;;;;;;5073934;28;20176;-74
2022/01/22 07:42:37;;;;;;;4.10;3.90;;;4.30;99.90;;;;;;5092552;28;20172;-74
2022/01/22 07:45:04;;;;;;;8.70;7.63;;;4.30;99.90;;;;;;5092540;28;20712;-73
2022/01/22 07:47:30;;;;;;;5.60;5.07;;;4.30;99.90;;;;;;5074031;28;20194;-74
2022/01/22 07:49:56;;;;;;;8.17;5.30;;;4.30;99.90;;;;;;5074581;28;20266;-73
2022/01/22 07:52:22;;;;;;;6.97;6.47;;;4.30;99.90;;;;;;5092292;28;20217;-73
2022/01/22 07:54:48;;;;;;;7.07;5.23;;;4.30;99.90;;;;;;5092539;28;20203;-74
2022/01/22 07:57:13;;;;;;;5.17;4.87;;;4.30;99.90;;;;;;5092084;28;20176;-74
2022/01/22 07:59:39;;;;;;;6.47;5.90;;;4.30;99.90;;;;;;5092506;28;20176;-73
2022/01/22 08:02:05;;;;;;;3.87;3.67;;;4.30;99.90;;;;;;5092360;28;20179;-74
2022/01/22 08:04:32;;;;;;;11.07;5.57;;;4.40;99.90;;;;;;5092289;28;20192;-73
2022/01/22 08:07:00;;;;;;;6.50;4.43;;;4.40;99.90;;;;;;5092336;28;20175;-73
2022/01/22 08:09:26;;;;;;;5.20;3.80;;;4.40;99.90;;;;;;5092280;28;20259;-75
2022/01/22 08:11:52;;;;;;;5.30;4.80;;;4.40;99.90;;;;;;5091972;28;20168;-77
2022/01/22 08:14:17;;;;;;;9.40;5.50;;;4.40;99.90;;;;;;5092332;28;20191;-75
2022/01/22 08:16:48;;;;;;;5.03;4.20;;;4.50;99.90;;;;;;5074091;28;20685;-75
2022/01/22 08:19:15;;;;;;;5.93;3.20;;;4.50;99.90;;;;;;5092581;28;20168;-75
2022/01/22 08:21:42;;;;;;;8.07;6.57;;;4.50;99.90;;;;;;5091825;28;20168;-75
2022/01/22 08:24:09;;;;;;;10.50;6.43;;;4.60;99.90;;;;;;5056539;28;20245;-75
2022/01/22 08:26:39;;;;;;;8.10;5.80;;;4.60;99.90;;;;;;5082264;28;20202;-75
2022/01/22 08:29:04;;;;;;;4.43;3.83;;;4.60;99.90;;;;;;5073761;28;20266;-74
2022/01/22 08:36:43;;;;;;;6.83;6.13;;;4.60;99.90;;;;;;5092102;28;20274;-75
2022/01/22 08:39:09;;;;;;;10.57;5.17;;;4.60;99.90;;;;;;5073697;28;20245;-74
2022/01/22 08:41:36;;;;;;;7.17;4.23;;;4.60;99.90;;;;;;5091354;28;20183;-75
2022/01/22 08:44:02;;;;;;;6.07;5.40;;;4.70;99.90;;;;;;5091877;28;20223;-75
2022/01/22 08:46:28;;;;;;;7.13;4.40;;;4.70;99.90;;;;;;5091341;28;20191;-74
2022/01/22 08:48:54;;;;;;;12.47;11.17;;;4.70;99.90;;;;;;5073589;28;20186;-74
2022/01/22 08:51:20;;;;;;;7.83;7.20;;;4.80;99.90;;;;;;5091327;28;20179;-74
2022/01/22 08:53:47;;;;;;;9.93;8.73;;;4.80;99.90;;;;;;5091655;28;20216;-74
2022/01/22 08:56:12;;;;;;;7.47;6.60;;;4.80;99.90;;;;;;5091069;28;20659;-74
2022/01/22 08:58:38;;;;;;;7.90;4.67;;;4.80;99.90;;;;;;5091386;28;20290;-74
2022/01/22 09:01:05;;;;;;;3.83;2.47;;;4.80;99.90;;;;;;5091580;28;20176;-75
2022/01/22 09:03:31;;;;;;;8.27;7.43;;;4.80;99.90;;;;;;5090770;28;20647;-73
2022/01/22 09:05:57;;;;;;;6.37;4.20;;;4.80;99.90;;;;;;5091299;28;20210;-74
2022/01/22 09:08:24;;;;;;;11.47;6.27;;;4.90;99.90;;;;;;5091483;28;20188;-75
2022/01/22 09:10:52;;;;;;;5.13;4.63;;;4.90;99.90;;;;;;5091254;28;20174;-75
2022/01/22 09:13:19;;;;;;;6.73;5.47;;;4.90;99.90;;;;;;5073110;28;20168;-74
2022/01/22 09:15:45;;;;;;;5.13;4.67;;;5.00;99.90;;;;;;5073028;28;20191;-74
2022/01/22 09:18:11;;;;;;;9.30;6.43;;;5.00;99.90;;;;;;5091189;28;20179;-74
2022/01/22 09:23:03;;;;;;;5.87;5.33;;;5.10;99.90;;;;;;5091084;28;20275;-74
2022/01/22 09:25:29;;;;;;;5.03;2.90;;;5.10;99.90;;;;;;5072882;28;20235;-74
2022/01/22 09:27:54;;;;;;;4.47;3.70;;;5.10;99.90;;;;;;5091287;28;20218;-74
2022/01/22 09:30:20;;;;;;;3.00;2.77;;;5.10;99.90;;;;;;5090192;28;20179;-74
2022/01/22 09:32:46;;;;;;;7.87;5.83;;;5.10;99.90;;;;;;5091026;28;20221;-74
2022/01/22 09:35:11;;;;;;;15.17;10.17;;;5.10;99.90;;;;;;5090935;28;20242;-73
2022/01/22 09:37:37;;;;;;;6.60;5.97;;;5.10;99.90;;;;;;5091174;28;20175;-74
2022/01/22 09:40:03;;;;;;;5.53;4.93;;;5.10;99.90;;;;;;5091410;28;20588;-75
2022/01/22 09:42:29;;;;;;;4.27;4.03;;;5.20;99.90;;;;;;5090920;28;20175;-74
2022/01/22 09:44:55;;;;;;;8.47;4.83;;;5.20;99.90;;;;;;5090963;28;20678;-74
2022/01/22 09:47:21;;;;;;;6.77;5.87;;;5.20;99.90;;;;;;5091109;28;20217;-74
2022/01/22 09:49:48;;;;;;;5.03;3.57;;;5.20;99.90;;;;;;5090921;28;20179;-74
2022/01/22 09:52:14;;;;;;;9.20;6.33;;;5.20;99.90;;;;;;5090693;28;20167;-74
2022/01/22 09:54:40;;;;;;;7.50;4.53;;;5.20;99.90;;;;;;5091123;28;20294;-74
2022/01/22 09:57:06;;;;;;;12.77;7.90;;;5.20;99.90;;;;;;5091112;28;20674;-75
2022/01/22 09:59:32;;;;;;;12.60;4.63;;;5.10;99.90;;;;;;5091025;28;20188;-75
2022/01/22 10:02:13;;;;;;;4.80;2.77;;;5.10;99.90;;;;;;5090762;28;20266;-74
2022/01/22 10:04:41;;;;;;;2.97;2.70;;;5.10;99.90;;;;;;5071961;28;20204;-74
2022/01/22 10:07:18;;;;;;;6.73;6.13;;;5.10;99.90;;;;;;5090902;28;20168;-75
2022/01/22 10:10:01;;;;;;;6.00;5.37;;;5.10;99.90;;;;;;5090852;28;20176;-75
2022/01/22 10:12:29;;;;;;;6.30;4.53;;;5.10;99.90;;;;;;5076154;28;20180;-74
2022/01/22 10:15:15;;;;;;;4.80;4.50;;;5.10;99.90;;;;;;5094581;28;20244;-75
2022/01/22 10:18:02;;;;;;;9.83;7.43;;;5.10;99.90;;;;;;5094439;28;20183;-74
2022/01/22 10:20:29;;;;;;;3.13;2.93;;;5.20;99.90;;;;;;5094352;28;20258;-74
2022/01/22 10:23:01;;;;;;;10.73;7.30;;;5.10;99.90;;;;;;5094457;28;20183;-74
2022/01/22 10:25:36;;;;;;;4.60;3.27;;;5.10;99.90;;;;;;5094107;28;20211;-74
2022/01/22 10:28:24;;;;;;;14.90;5.07;;;5.20;99.90;;;;;;5094509;28;20164;-75
2022/01/22 10:30:58;;;;;;;8.23;6.30;;;5.20;99.90;;;;;;5094191;28;20172;-74
2022/01/22 10:33:31;;;;;;;9.23;7.67;;;5.20;99.90;;;;;;5075253;28;20171;-74
2022/01/22 10:36:16;;;;;;;6.10;5.23;;;5.20;99.90;;;;;;5093898;28;20207;-75
2022/01/22 10:38:47;;;;;;;8.03;6.03;;;5.20;99.90;;;;;;5094304;28;20190;-74
2022/01/22 10:41:15;;;;;;;5.00;3.20;;;5.20;99.90;;;;;;5094258;28;20186;-75
2022/01/22 10:43:53;;;;;;;5.03;4.30;;;5.20;99.90;;;;;;5093858;28;20666;-73
2022/01/22 10:46:32;;;;;;;7.50;3.07;;;5.20;99.90;;;;;;5075498;28;20210;-75
2022/01/22 10:49:09;;;;;;;5.33;4.97;;;5.20;99.90;;;;;;5094266;28;20206;-74
2022/01/22 10:51:52;;;;;;;4.97;4.37;;;5.30;99.90;;;;;;5093543;28;20199;-75
2022/01/22 10:54:21;;;;;;;4.43;4.13;;;5.20;99.90;;;;;;5093704;28;20194;-74
2022/01/22 10:56:47;;;;;;;5.83;5.17;;;5.30;99.90;;;;;;5093617;28;20334;-74
2022/01/22 10:59:16;;;;;;;6.90;5.80;;;5.30;99.90;;;;;;5075783;28;20555;-75
2022/01/22 11:01:55;;;;;;;2.77;2.53;;;5.30;99.90;;;;;;5093621;28;20210;-75
2022/01/22 11:04:24;;;;;;;3.03;2.83;;;5.30;99.90;;;;;;5093214;28;20187;-78
2022/01/22 11:06:57;;;;;;;8.97;5.13;;;5.30;99.90;;;;;;5094293;28;20245;-74
2022/01/22 11:09:26;;;;;;;6.63;5.70;;;5.30;99.90;;;;;;5075730;28;20658;-75
2022/01/22 11:11:52;;;;;;;6.40;5.90;;;5.30;99.90;;;;;;5088007;28;20168;-74
2022/01/22 11:14:19;;;;;;;8.13;5.27;;;5.40;99.90;;;;;;5087830;28;20727;-74
2022/01/22 11:16:48;;;;;;;13.90;7.40;;;5.40;99.90;;;;;;5073110;28;20202;-74
2022/01/22 11:19:23;;;;;;;10.47;3.70;;;5.40;99.90;;;;;;5073354;28;20186;-75
2022/01/22 11:21:52;;;;;;;4.33;3.90;;;5.60;99.90;;;;;;5073834;28;20213;-74
2022/01/22 11:24:25;;;;;;;4.90;4.37;;;5.60;99.90;;;;;;5055714;28;20201;-74
2022/01/22 11:26:58;;;;;;;3.93;3.73;;;5.60;99.90;;;;;;5073438;28;20176;-75
2022/01/22 11:29:31;;;;;;;6.73;4.43;;;5.60;99.90;;;;;;5081263;28;20183;-75
2022/01/22 11:32:00;;;;;;;4.63;4.27;;;5.60;99.90;;;;;;5075479;28;20178;-75
2022/01/22 11:34:32;;;;;;;4.40;4.00;;;5.60;99.90;;;;;;5092776;28;20264;-75
2022/01/22 11:37:06;;;;;;;5.77;4.77;;;5.70;99.90;;;;;;5092710;28;20172;-75
2022/01/22 11:39:31;;;;;;;5.43;5.07;;;5.70;99.90;;;;;;5072402;28;20175;-75
2022/01/22 11:41:59;;;;;;;6.37;3.83;;;5.70;99.90;;;;;;5070628;28;20195;-75
2022/01/22 11:44:34;;;;;;;4.07;3.70;;;5.70;99.90;;;;;;5082789;28;20278;-75
2022/01/22 11:47:09;;;;;;;4.47;4.17;;;5.60;99.90;;;;;;5074736;28;20182;-75
2022/01/22 11:49:36;;;;;;;4.30;3.93;;;5.60;99.90;;;;;;5092746;28;20242;-75
2022/01/22 11:52:08;;;;;;;4.13;3.90;;;5.60;99.90;;;;;;5092522;28;20578;-75
2022/01/22 11:55:01;;;;;;;4.63;4.40;;;5.60;99.90;;;;;;5092484;28;20274;-75
2022/01/22 11:57:32;;;;;;;3.83;3.53;;;5.60;99.90;;;;;;5089925;28;20195;-72
2022/01/22 12:00:23;;;;;;;3.90;3.53;;;5.60;99.90;;;;;;5074955;28;20645;-75
2022/01/22 12:03:03;;;;;;;3.53;3.33;;;5.60;99.90;;;;;;5092064;28;20180;-75
2022/01/22 12:05:30;;;;;;;6.33;5.97;;;5.60;99.90;;;;;;5073964;28;20203;-75
2022/01/22 12:08:00;;;;;;;2.10;1.97;;;5.60;99.90;;;;;;5092321;28;20585;-75
2022/01/22 12:10:40;;;;;;;7.77;6.53;;;5.60;99.90;;;;;;5092409;28;20542;-75
2022/01/22 12:16:08;;;;;;;7.10;6.50;;;5.60;99.90;;;;;;5092859;28;20232;-75
2022/01/22 12:18:40;;;;;;;4.53;3.73;;;5.60;99.90;;;;;;5093565;28;20278;-75
2022/01/22 12:23:32;;;;;;;4.77;4.47;;;5.60;99.90;;;;;;5091779;28;20172;-76
2022/01/22 12:26:01;;;;;;;4.70;4.03;;;5.60;99.90;;;;;;5092218;28;20277;-75
2022/01/22 12:28:37;;;;;;;8.13;6.27;;;5.60;99.90;;;;;;5074234;28;20182;-75
2022/01/22 12:31:20;;;;;;;4.23;3.70;;;5.60;99.90;;;;;;5092017;28;20547;-75
2022/01/22 12:33:53;;;;;;;3.17;2.87;;;5.60;99.90;;;;;;5091546;28;20167;-75
2022/01/22 12:36:36;;;;;;;7.50;5.57;;;5.70;99.90;;;;;;5096297;28;20578;-75
2022/01/22 12:39:11;;;;;;;5.67;3.93;;;5.70;99.90;;;;;;5092209;28;20542;-75
2022/01/22 12:44:19;;;;;;;4.43;3.90;;;5.80;99.90;;;;;;5091771;28;20662;-75
2022/01/22 12:46:44;;;;;;;4.17;3.83;;;5.80;99.90;;;;;;5091607;28;20175;-74
2022/01/22 12:49:14;;;;;;;3.60;3.40;;;5.80;99.90;;;;;;5091753;28;20222;-75
2022/01/22 12:51:40;;;;;;;2.47;2.30;;;5.80;99.90;;;;;;5091576;28;20233;-75
2022/01/22 12:54:06;;;;;;;10.43;5.57;;;5.80;99.90;;;;;;5091584;28;20196;-74
2022/01/22 12:56:49;;;;;;;33.37;4.60;;;5.80;99.90;;;;;;5091498;28;20186;-74
2022/01/22 12:59:15;;;;;;;5.07;3.33;;;5.80;99.90;;;;;;5089098;28;20179;-74
2022/01/22 13:01:46;;;;;;;8.30;5.70;;;5.80;99.90;;;;;;5086173;28;20175;-74
2022/01/22 13:04:11;;;;;;;2.63;2.43;;;5.80;99.90;;;;;;5089818;28;20684;-75
2022/01/22 13:06:39;;;;;;;5.30;4.43;;;5.80;99.90;;;;;;5091137;28;20228;-75
2022/01/22 13:09:04;;;;;;;2.63;2.47;;;5.80;99.90;;;;;;5073169;28;20176;-75
2022/01/22 13:11:32;;;;;;;4.37;4.00;;;5.90;99.90;;;;;;5072380;28;20262;-75
2022/01/22 13:13:58;;;;;;;9.07;6.83;;;5.80;99.90;;;;;;5091548;28;20172;-75
2022/01/22 13:16:24;;;;;;;22.03;4.67;;;5.90;99.90;;;;;;5091423;28;20168;-74
2022/01/22 13:18:58;;;;;;;9.27;5.67;;;5.90;99.90;;;;;;5091358;28;20274;-74
2022/01/22 13:21:29;;;;;;;4.83;4.43;;;5.90;99.90;;;;;;5091407;28;20645;-74
2022/01/22 13:24:01;;;;;;;7.30;4.80;;;5.90;99.90;;;;;;5073474;28;20208;-75
2022/01/22 13:26:55;;;;;;;5.57;5.03;;;5.90;99.90;;;;;;5091329;28;20206;-74
2022/01/22 13:29:52;;;;;;;3.93;3.17;;;5.90;99.90;;;;;;5091463;28;20167;-75
2022/01/22 13:35:29;;;;;;;8.13;3.80;;;5.90;99.90;;;;;;5134951;22;20220;-75
2022/01/22 13:40:41;;;;;;;5.70;5.10;;;5.90;99.90;;;;;;5052136;28;20184;-75
2022/01/22 13:48:36;;;;;;;15.47;5.73;;;5.90;99.90;;;;;;5055831;28;20181;-75
2022/01/22 13:51:02;;;;;;;5.97;4.43;;;5.90;99.90;;;;;;5056233;28;20238;-76
2022/01/22 13:53:30;;;;;;;4.40;4.00;;;5.90;99.90;;;;;;5055659;28;20179;-75
2022/01/22 13:56:09;;;;;;;9.43;5.73;;;5.80;99.90;;;;;;5037732;28;20270;-75
2022/01/22 13:58:35;;;;;;;5.93;5.33;;;5.80;99.90;;;;;;5038266;28;20205;-75
2022/01/22 14:01:08;;;;;;;6.93;6.23;;;5.80;99.90;;;;;;5034338;28;20529;-75
2022/01/22 14:03:44;;;;;;;8.00;7.30;;;5.80;99.90;;;;;;5034822;28;20200;-76
2022/01/22 14:06:11;;;;;;;5.27;3.20;;;5.80;99.90;;;;;;5048586;28;20761;-76
2022/01/22 14:08:37;;;;;;;6.77;6.20;;;5.90;99.90;;;;;;5036892;28;20544;-76
2022/01/22 14:11:08;;;;;;;9.07;8.43;;;5.80;99.90;;;;;;5055576;28;20170;-75
2022/01/22 14:13:34;;;;;;;6.63;6.17;;;5.80;99.90;;;;;;5055467;28;20180;-75
2022/01/22 14:16:11;;;;;;;5.90;5.10;;;5.80;99.90;;;;;;5054442;28;20266;-76
2022/01/22 14:18:41;;;;;;;5.00;4.47;;;5.80;99.90;;;;;;5075053;28;20674;-76
2022/01/22 14:21:08;;;;;;;8.87;6.53;;;5.80;99.90;;;;;;5074895;28;20180;-76
2022/01/22 14:23:36;;;;;;;4.40;3.57;;;5.80;99.90;;;;;;5074396;28;20674;-76
2022/01/22 14:26:08;;;;;;;12.43;4.20;;;5.80;99.90;;;;;;5054751;28;20212;-76
2022/01/22 14:29:04;;;;;;;20.83;5.43;;;5.80;99.90;;;;;;5036484;28;20173;-76
2022/01/22 14:31:32;;;;;;;5.30;4.90;;;5.80;99.90;;;;;;5035359;28;20196;-76
2022/01/22 14:34:02;;;;;;;4.73;4.27;;;5.80;99.90;;;;;;5054343;28;20252;-76
2022/01/22 14:36:32;;;;;;;4.10;3.43;;;5.80;99.90;;;;;;5054026;28;20217;-76
2022/01/22 14:44:37;;;;;;;6.67;5.00;;;5.80;99.90;;;;;;5055877;28;20338;-76
2022/01/22 14:47:13;;;;;;;8.80;6.03;;;5.70;99.90;;;;;;5054322;28;20176;-76
2022/01/22 14:49:42;;;;;;;5.07;4.63;;;5.80;99.90;;;;;;5036534;28;20184;-77
2022/01/22 14:52:09;;;;;;;5.80;4.43;;;5.80;99.90;;;;;;5054327;28;20189;-77
2022/01/22 14:54:38;;;;;;;20.43;7.07;;;5.80;99.90;;;;;;5053983;28;20201;-76